createdAt,value
2019-02-19T00:00:22.663Z,8.70
2019-02-19T00:01:22.659Z,9.20
2019-02-19T00:02:22.665Z,9.60
2019-02-19T00:03:22.688Z,9.70
2019-02-19T00:04:22.685Z,8.50
2019-02-19T00:05:22.685Z,8.90
2019-02-19T00:06:22.691Z,8.20
2019-02-19T00:07:22.691Z,7.70
2019-02-19T00:08:22.706Z,7.60
2019-02-19T00:09:22.710Z,8.40
2019-02-19T00:10:22.716Z,8.10
2019-02-19T00:11:22.721Z,8.50
2019-02-19T00:12:22.733Z,8.20
2019-02-19T00:13:22.733Z,8.40
2019-02-19T00:14:22.747Z,8.20
2019-02-19T00:15:22.746Z,8.40
2019-02-19T00:16:22.756Z,7.80
2019-02-19T00:17:22.758Z,7.80
2019-02-19T00:18:22.762Z,7.20
2019-02-19T00:19:22.772Z,7.80
2019-02-19T00:20:22.771Z,7.70
2019-02-19T00:21:22.781Z,7.50
2019-02-19T00:22:22.784Z,7.40
2019-02-19T00:23:22.806Z,8.00
2019-02-19T00:24:22.797Z,8.10
2019-02-19T00:25:22.803Z,7.60
2019-02-19T00:26:22.813Z,7.60
2019-02-19T00:27:22.819Z,7.60
2019-02-19T00:28:22.816Z,8.00
2019-02-19T00:29:22.829Z,8.20
2019-02-19T00:30:22.829Z,7.50
2019-02-19T00:31:22.836Z,8.40
2019-02-19T00:32:22.844Z,8.10
2019-02-19T00:33:22.850Z,7.90
2019-02-19T00:34:22.854Z,7.90
2019-02-19T00:35:22.893Z,7.80
2019-02-19T00:36:22.862Z,7.60
2019-02-19T00:37:22.872Z,7.30
2019-02-19T00:38:22.879Z,7.40
2019-02-19T00:39:22.883Z,7.90
2019-02-19T00:40:22.892Z,7.50
2019-02-19T00:41:22.891Z,8.10
2019-02-19T00:42:22.901Z,8.50
2019-02-19T00:43:22.912Z,7.60
2019-02-19T00:44:22.910Z,7.70
2019-02-19T00:45:22.914Z,7.20
2019-02-19T00:46:22.926Z,7.60
2019-02-19T00:47:22.933Z,7.80
2019-02-19T00:48:22.933Z,7.30
2019-02-19T00:49:22.936Z,7.70
2019-02-19T00:50:22.939Z,7.10
2019-02-19T00:51:22.953Z,7.40
2019-02-19T00:52:22.958Z,8.30
2019-02-19T00:53:22.968Z,7.30
2019-02-19T00:54:22.971Z,7.60
2019-02-19T00:55:22.978Z,7.60
2019-02-19T00:56:22.978Z,8.20
2019-02-19T00:57:22.988Z,7.60
2019-02-19T00:58:22.990Z,8.50
2019-02-19T00:59:23.000Z,8.40
2019-02-19T01:00:23.010Z,7.70
2019-02-19T01:01:23.003Z,8.00
2019-02-19T01:02:23.014Z,7.80
2019-02-19T01:03:23.450Z,8.40
2019-02-19T01:04:23.045Z,7.90
2019-02-19T01:05:23.035Z,8.10
2019-02-19T01:06:23.035Z,7.70
2019-02-19T01:07:23.042Z,7.80
2019-02-19T01:08:23.049Z,7.80
2019-02-19T01:09:23.051Z,7.80
2019-02-19T01:10:23.061Z,7.60
2019-02-19T01:11:23.065Z,8.60
2019-02-19T01:12:23.068Z,8.50
2019-02-19T01:13:23.074Z,7.90
2019-02-19T01:14:23.083Z,8.30
2019-02-19T01:15:25.440Z,8.10
2019-02-19T01:16:23.090Z,8.50
2019-02-19T01:17:23.096Z,7.70
2019-02-19T01:18:23.106Z,8.10
2019-02-19T01:19:23.228Z,8.00
2019-02-19T01:20:23.113Z,8.40
2019-02-19T01:21:23.125Z,8.10
2019-02-19T01:22:23.129Z,8.50
2019-02-19T01:23:23.135Z,8.00
2019-02-19T01:24:23.147Z,7.80
2019-02-19T01:25:23.141Z,8.30
2019-02-19T01:26:23.181Z,8.00
2019-02-19T01:27:23.158Z,7.90
2019-02-19T01:28:23.162Z,7.90
2019-02-19T01:29:23.164Z,8.40
2019-02-19T01:30:23.170Z,7.90
2019-02-19T01:31:23.173Z,8.70
2019-02-19T01:32:23.187Z,8.30
2019-02-19T01:33:23.195Z,8.80
2019-02-19T01:34:23.190Z,7.90
2019-02-19T01:35:23.197Z,8.20
2019-02-19T01:36:23.202Z,8.00
2019-02-19T01:37:23.211Z,8.90
2019-02-19T01:38:23.221Z,8.20
2019-02-19T01:39:23.233Z,7.80
2019-02-19T01:40:23.231Z,8.60
2019-02-19T01:41:23.237Z,8.60
2019-02-19T01:42:23.237Z,8.40
2019-02-19T01:43:23.246Z,7.20
2019-02-19T01:44:23.258Z,8.90
2019-02-19T01:45:23.251Z,9.20
2019-02-19T01:46:23.261Z,8.50
2019-02-19T01:47:24.986Z,8.60
2019-02-19T01:48:23.270Z,8.60
2019-02-19T01:49:23.276Z,8.40
2019-02-19T01:50:23.279Z,8.20
2019-02-19T01:51:23.286Z,7.90
2019-02-19T01:52:23.295Z,8.50
2019-02-19T01:53:23.301Z,8.80
2019-02-19T01:54:23.306Z,8.30
2019-02-19T01:55:23.306Z,7.80
2019-02-19T01:56:23.312Z,8.90
2019-02-19T01:57:23.321Z,7.80
2019-02-19T01:58:23.321Z,7.80
2019-02-19T01:59:23.327Z,8.60
2019-02-19T02:00:23.334Z,8.10
2019-02-19T02:01:23.341Z,8.70
2019-02-19T02:02:23.349Z,8.40
2019-02-19T02:03:23.350Z,8.00
2019-02-19T02:04:23.359Z,7.90
2019-02-19T02:05:23.363Z,8.30
2019-02-19T02:06:23.370Z,8.60
2019-02-19T02:07:23.378Z,8.30
2019-02-19T02:08:23.369Z,8.00
2019-02-19T02:09:23.372Z,8.20
2019-02-19T02:10:23.387Z,7.90
2019-02-19T02:11:23.397Z,8.30
2019-02-19T02:12:23.398Z,8.40
2019-02-19T02:13:23.407Z,8.40
2019-02-19T02:14:23.411Z,8.90
2019-02-19T02:15:23.417Z,8.60
2019-02-19T02:16:23.426Z,8.10
2019-02-19T02:17:23.430Z,8.90
2019-02-19T02:18:23.446Z,8.80
2019-02-19T02:19:23.453Z,8.10
2019-02-19T02:20:23.443Z,9.60
2019-02-19T02:21:23.446Z,9.70
2019-02-19T02:22:23.455Z,8.40
2019-02-19T02:23:23.466Z,9.40
2019-02-19T02:24:23.472Z,9.60
2019-02-19T02:25:23.479Z,9.70
2019-02-19T02:26:23.485Z,9.30
2019-02-19T02:27:23.478Z,9.10
2019-02-19T02:28:23.485Z,9.40
2019-02-19T02:29:23.497Z,8.50
2019-02-19T02:30:23.495Z,9.00
2019-02-19T02:31:23.501Z,9.70
2019-02-19T02:32:23.509Z,9.70
2019-02-19T02:33:23.525Z,9.90
2019-02-19T02:34:23.548Z,9.00
2019-02-19T02:35:23.618Z,9.70
2019-02-19T02:36:23.704Z,10.60
2019-02-19T02:37:23.679Z,10.50
2019-02-19T02:38:23.549Z,10.70
2019-02-19T02:39:23.574Z,10.80
2019-02-19T02:40:23.653Z,9.90
2019-02-19T02:41:23.713Z,10.50
2019-02-19T02:42:23.649Z,10.70
2019-02-19T02:43:23.575Z,10.70
2019-02-19T02:44:23.577Z,11.10
2019-02-19T02:45:23.582Z,11.20
2019-02-19T02:46:23.586Z,11.00
2019-02-19T02:47:23.596Z,11.20
2019-02-19T02:48:23.594Z,11.70
2019-02-19T02:49:23.600Z,11.20
2019-02-19T02:50:23.611Z,10.70
2019-02-19T02:51:23.619Z,11.00
2019-02-19T02:52:23.619Z,11.80
2019-02-19T02:53:23.623Z,12.50
2019-02-19T02:54:23.629Z,12.60
2019-02-19T02:55:23.635Z,12.90
2019-02-19T02:56:23.643Z,13.00
2019-02-19T02:57:23.650Z,13.70
2019-02-19T02:58:23.652Z,13.70
2019-02-19T02:59:23.650Z,13.50
2019-02-19T03:00:23.672Z,14.30
2019-02-19T03:01:23.690Z,13.60
2019-02-19T03:02:23.672Z,13.90
2019-02-19T03:03:23.669Z,13.60
2019-02-19T03:04:23.681Z,14.30
2019-02-19T03:05:25.389Z,14.50
2019-02-19T03:06:23.688Z,14.60
2019-02-19T03:07:23.704Z,15.30
2019-02-19T03:08:23.704Z,14.80
2019-02-19T03:09:23.712Z,14.60
2019-02-19T03:10:23.714Z,15.80
2019-02-19T03:11:23.720Z,14.80
2019-02-19T03:12:23.731Z,14.60
2019-02-19T03:13:23.729Z,15.40
2019-02-19T03:14:23.737Z,15.60
2019-02-19T03:15:23.742Z,15.70
2019-02-19T03:16:23.745Z,16.00
2019-02-19T03:17:23.755Z,15.90
2019-02-19T03:18:23.758Z,16.50
2019-02-19T03:19:23.768Z,16.40
2019-02-19T03:20:23.768Z,16.60
2019-02-19T03:21:23.777Z,16.50
2019-02-19T03:22:23.788Z,17.10
2019-02-19T03:23:23.789Z,17.00
2019-02-19T03:24:23.790Z,17.20
2019-02-19T03:25:23.796Z,17.60
2019-02-19T03:26:23.803Z,17.50
2019-02-19T03:27:23.809Z,18.30
2019-02-19T03:28:23.822Z,18.40
2019-02-19T03:29:23.824Z,18.20
2019-02-19T03:30:23.823Z,18.60
2019-02-19T03:31:23.841Z,17.80
2019-02-19T03:32:23.849Z,18.30
2019-02-19T03:33:23.839Z,18.70
2019-02-19T03:34:23.846Z,19.90
2019-02-19T03:35:23.847Z,17.90
2019-02-19T03:36:23.867Z,17.80
2019-02-19T03:37:23.866Z,19.30
2019-02-19T03:38:23.866Z,19.20
2019-02-19T03:39:23.882Z,19.10
2019-02-19T03:40:23.875Z,19.30
2019-02-19T03:41:23.884Z,18.90
2019-02-19T03:42:23.895Z,19.40
2019-02-19T03:43:23.893Z,20.30
2019-02-19T03:44:23.905Z,21.20
2019-02-19T03:45:23.904Z,20.20
2019-02-19T03:46:23.914Z,20.20
2019-02-19T03:47:23.913Z,20.00
2019-02-19T03:48:23.947Z,20.90
2019-02-19T03:49:23.929Z,20.80
2019-02-19T03:50:23.930Z,20.30
2019-02-19T03:51:23.936Z,19.80
2019-02-19T03:52:23.949Z,20.40
2019-02-19T03:53:23.946Z,19.70
2019-02-19T03:54:23.958Z,20.40
2019-02-19T03:55:23.959Z,21.00
2019-02-19T03:56:23.962Z,20.50
2019-02-19T03:57:23.968Z,20.90
2019-02-19T03:58:23.971Z,20.40
2019-02-19T03:59:23.981Z,20.10
2019-02-19T04:00:23.984Z,21.00
2019-02-19T04:01:24.010Z,21.30
2019-02-19T04:02:24.003Z,21.70
2019-02-19T04:03:24.008Z,21.40
2019-02-19T04:04:24.018Z,22.60
2019-02-19T04:05:24.021Z,23.00
2019-02-19T04:06:24.020Z,23.40
2019-02-19T04:07:24.025Z,23.10
2019-02-19T04:08:24.026Z,23.70
2019-02-19T04:09:24.035Z,23.00
2019-02-19T04:10:24.028Z,22.70
2019-02-19T04:11:24.046Z,23.50
2019-02-19T04:12:24.046Z,24.70
2019-02-19T04:13:24.054Z,23.40
2019-02-19T04:14:24.055Z,25.20
2019-02-19T04:15:24.065Z,24.40
2019-02-19T04:16:24.074Z,23.90
2019-02-19T04:17:24.075Z,23.60
2019-02-19T04:18:24.084Z,24.00
2019-02-19T04:19:24.085Z,24.20
2019-02-19T04:20:24.095Z,22.70
2019-02-19T04:21:24.101Z,23.10
2019-02-19T04:22:24.100Z,23.60
2019-02-19T04:23:24.107Z,22.80
2019-02-19T04:24:24.110Z,23.00
2019-02-19T04:25:24.117Z,24.40
2019-02-19T04:26:24.123Z,23.10
2019-02-19T04:27:24.130Z,24.40
2019-02-19T04:28:24.136Z,23.60
2019-02-19T04:29:24.143Z,24.20
2019-02-19T04:30:24.146Z,24.30
2019-02-19T04:31:24.150Z,24.30
2019-02-19T04:32:24.153Z,24.30
2019-02-19T04:33:24.158Z,25.30
2019-02-19T04:34:24.164Z,24.20
2019-02-19T04:35:24.169Z,23.10
2019-02-19T04:36:24.174Z,24.20
2019-02-19T04:37:24.177Z,24.00
2019-02-19T04:38:24.184Z,25.10
2019-02-19T04:39:24.187Z,23.90
2019-02-19T04:40:24.194Z,24.30
2019-02-19T04:41:24.201Z,25.60
2019-02-19T04:42:24.207Z,25.00
2019-02-19T04:43:24.210Z,24.10
2019-02-19T04:44:24.217Z,24.50
2019-02-19T04:45:24.219Z,24.20
2019-02-19T04:46:31.146Z,24.40
2019-02-19T04:47:24.232Z,24.80
2019-02-19T04:48:24.234Z,24.80
2019-02-19T04:49:24.241Z,23.10
2019-02-19T04:50:24.247Z,23.70
2019-02-19T04:51:24.250Z,23.30
2019-02-19T04:52:24.259Z,23.60
2019-02-19T04:53:24.263Z,23.70
2019-02-19T04:54:24.283Z,22.20
2019-02-19T04:55:24.282Z,23.00
2019-02-19T04:56:24.276Z,23.40
2019-02-19T04:57:24.285Z,23.00
2019-02-19T04:58:24.289Z,24.30
2019-02-19T04:59:24.293Z,23.20
2019-02-19T05:00:24.299Z,21.90
2019-02-19T05:01:24.304Z,22.00
2019-02-19T05:02:24.311Z,22.80
2019-02-19T05:03:24.312Z,23.20
2019-02-19T05:04:24.317Z,22.90
2019-02-19T05:05:24.332Z,23.70
2019-02-19T05:06:24.330Z,22.90
2019-02-19T05:07:24.334Z,22.60
2019-02-19T05:08:24.344Z,23.10
2019-02-19T05:09:24.356Z,21.60
2019-02-19T05:10:24.352Z,22.20
2019-02-19T05:11:24.359Z,21.90
2019-02-19T05:12:24.396Z,20.70
2019-02-19T05:13:24.369Z,21.70
2019-02-19T05:14:24.373Z,21.70
2019-02-19T05:15:24.378Z,19.80
2019-02-19T05:16:24.385Z,20.80
2019-02-19T05:17:24.391Z,21.70
2019-02-19T05:18:24.402Z,20.00
2019-02-19T05:19:24.394Z,19.50
2019-02-19T05:20:24.404Z,20.80
2019-02-19T05:21:24.407Z,19.80
2019-02-19T05:22:24.411Z,20.40
2019-02-19T05:23:24.418Z,20.40
2019-02-19T05:24:24.427Z,19.90
2019-02-19T05:25:24.431Z,19.40
2019-02-19T05:26:24.429Z,19.20
2019-02-19T05:27:24.438Z,18.60
2019-02-19T05:28:24.454Z,18.10
2019-02-19T05:29:24.454Z,18.20
2019-02-19T05:30:24.454Z,18.70
2019-02-19T05:31:24.457Z,19.20
2019-02-19T05:32:24.454Z,19.50
2019-02-19T05:33:24.465Z,19.10
2019-02-19T05:34:24.473Z,18.50
2019-02-19T05:35:24.476Z,17.90
2019-02-19T05:36:24.484Z,19.60
2019-02-19T05:37:24.492Z,19.10
2019-02-19T05:38:24.496Z,18.10
2019-02-19T05:39:24.513Z,19.30
2019-02-19T05:40:24.514Z,19.30
2019-02-19T05:41:24.509Z,20.00
2019-02-19T05:42:24.515Z,18.80
2019-02-19T05:43:24.519Z,18.60
2019-02-19T05:44:24.534Z,17.90
2019-02-19T05:45:24.535Z,19.20
2019-02-19T05:46:24.531Z,18.80
2019-02-19T05:47:24.537Z,19.80
2019-02-19T05:48:24.547Z,19.20
2019-02-19T05:49:24.549Z,19.20
2019-02-19T05:50:24.557Z,20.40
2019-02-19T05:51:24.562Z,19.60
2019-02-19T05:52:24.559Z,19.70
2019-02-19T05:53:24.570Z,20.30
2019-02-19T05:54:24.572Z,19.80
2019-02-19T05:55:24.579Z,21.70
2019-02-19T05:56:24.585Z,20.10
2019-02-19T05:57:24.593Z,20.10
2019-02-19T05:58:24.598Z,18.50
2019-02-19T05:59:24.598Z,19.90
2019-02-19T06:00:24.615Z,20.10
2019-02-19T06:01:24.609Z,20.80
2019-02-19T06:02:24.617Z,20.30
2019-02-19T06:03:24.621Z,20.30
2019-02-19T06:04:24.627Z,20.90
2019-02-19T06:05:24.631Z,19.20
2019-02-19T06:06:24.633Z,20.20
2019-02-19T06:07:24.649Z,19.10
2019-02-19T06:08:24.642Z,20.60
2019-02-19T06:09:24.652Z,20.70
2019-02-19T06:10:24.656Z,21.50
2019-02-19T06:11:24.663Z,20.90
2019-02-19T06:12:24.665Z,22.00
2019-02-19T06:13:24.671Z,20.90
2019-02-19T06:14:24.677Z,21.50
2019-02-19T06:15:24.678Z,21.20
2019-02-19T06:16:24.690Z,21.40
2019-02-19T06:17:24.688Z,22.40
2019-02-19T06:18:24.694Z,20.90
2019-02-19T06:19:24.697Z,21.90
2019-02-19T06:20:24.752Z,22.50
2019-02-19T06:21:24.706Z,21.10
2019-02-19T06:22:24.713Z,21.80
2019-02-19T06:23:24.726Z,22.20
2019-02-19T06:24:24.724Z,22.00
2019-02-19T06:25:24.734Z,21.90
2019-02-19T06:26:24.733Z,21.40
2019-02-19T06:27:24.739Z,23.00
2019-02-19T06:28:24.745Z,21.50
2019-02-19T06:29:24.750Z,19.80
2019-02-19T06:30:24.754Z,22.70
2019-02-19T06:31:24.757Z,20.80
2019-02-19T06:32:24.767Z,21.90
2019-02-19T06:33:24.768Z,21.90
2019-02-19T06:34:24.772Z,23.00
2019-02-19T06:35:24.784Z,24.20
2019-02-19T06:36:24.786Z,23.30
2019-02-19T06:37:24.792Z,22.10
2019-02-19T06:38:24.796Z,23.00
2019-02-19T06:39:24.809Z,22.60
2019-02-19T06:40:24.804Z,22.50
2019-02-19T06:41:24.809Z,22.60
2019-02-19T06:42:24.830Z,23.10
2019-02-19T06:43:24.823Z,22.50
2019-02-19T06:44:24.825Z,23.30
2019-02-19T06:45:24.841Z,23.60
2019-02-19T06:46:24.857Z,23.20
2019-02-19T06:47:24.845Z,20.30
2019-02-19T06:48:24.847Z,23.20
2019-02-19T06:49:24.853Z,22.00
2019-02-19T06:50:24.853Z,23.30
2019-02-19T06:51:24.863Z,22.60
2019-02-19T06:52:24.872Z,22.60
2019-02-19T06:53:24.872Z,22.90
2019-02-19T06:54:24.881Z,22.80
2019-02-19T06:55:24.879Z,22.80
2019-02-19T06:56:24.895Z,24.00
2019-02-19T06:57:24.895Z,23.90
2019-02-19T06:58:24.896Z,19.70
2019-02-19T06:59:24.901Z,21.30
2019-02-19T07:00:24.924Z,22.10
2019-02-19T07:01:24.911Z,23.10
2019-02-19T07:02:24.908Z,23.00
2019-02-19T07:03:24.926Z,22.10
2019-02-19T07:05:24.930Z,23.20
2019-02-19T07:06:24.937Z,23.20
2019-02-19T07:07:24.940Z,22.50
2019-02-19T07:08:24.952Z,22.80
2019-02-19T07:09:24.957Z,22.20
2019-02-19T07:10:24.971Z,22.40
2019-02-19T07:11:24.966Z,23.60
2019-02-19T07:12:24.972Z,22.20
2019-02-19T07:13:24.972Z,22.10
2019-02-19T07:14:24.975Z,22.40
2019-02-19T07:15:24.983Z,22.90
2019-02-19T07:16:24.988Z,23.70
2019-02-19T07:17:24.997Z,22.00
2019-02-19T07:18:24.997Z,19.90
2019-02-19T07:19:25.014Z,20.80
2019-02-19T07:20:25.023Z,22.50
2019-02-19T07:21:25.017Z,20.90
2019-02-19T07:22:25.017Z,21.70
2019-02-19T07:23:25.033Z,21.80
2019-02-19T07:24:25.039Z,22.90
2019-02-19T07:25:25.036Z,20.60
2019-02-19T07:26:25.044Z,20.20
2019-02-19T07:27:25.045Z,20.90
2019-02-19T07:28:25.048Z,19.00
2019-02-19T07:29:25.055Z,18.30
2019-02-19T07:30:25.061Z,20.10
2019-02-19T07:31:25.061Z,21.00
2019-02-19T07:32:25.080Z,18.80
2019-02-19T07:33:25.081Z,21.60
2019-02-19T07:34:25.083Z,21.30
2019-02-19T07:35:25.090Z,20.90
2019-02-19T07:36:25.107Z,22.30
2019-02-19T07:37:25.096Z,21.40
2019-02-19T07:38:25.103Z,22.30
2019-02-19T07:39:25.110Z,22.10
2019-02-19T07:40:25.121Z,21.70
2019-02-19T07:41:25.125Z,21.40
2019-02-19T07:42:25.122Z,21.00
2019-02-19T07:43:25.129Z,20.90
2019-02-19T07:44:25.151Z,22.60
2019-02-19T07:45:25.148Z,22.20
2019-02-19T07:46:25.144Z,21.30
2019-02-19T07:47:25.147Z,21.40
2019-02-19T07:48:25.154Z,20.40
2019-02-19T07:49:25.166Z,20.80
2019-02-19T07:50:25.164Z,21.20
2019-02-19T07:51:25.176Z,22.00
2019-02-19T07:52:25.182Z,21.00
2019-02-19T07:53:25.183Z,21.20
2019-02-19T07:54:25.186Z,19.20
2019-02-19T07:55:25.204Z,21.20
2019-02-19T07:56:25.201Z,22.10
2019-02-19T07:57:25.202Z,17.50
2019-02-19T07:58:25.208Z,20.90
2019-02-19T07:59:25.224Z,21.10
2019-02-19T08:00:25.228Z,20.30
2019-02-19T08:01:25.224Z,21.00
2019-02-19T08:02:25.238Z,20.60
2019-02-19T08:03:25.234Z,20.50
2019-02-19T08:04:25.258Z,20.50
2019-02-19T08:05:25.250Z,19.70
2019-02-19T08:06:25.256Z,21.30
2019-02-19T08:07:25.264Z,19.00
2019-02-19T08:08:25.261Z,19.80
2019-02-19T08:09:25.268Z,18.40
2019-02-19T08:10:25.280Z,18.90
2019-02-19T08:11:25.291Z,20.50
2019-02-19T08:12:26.317Z,18.60
2019-02-19T08:13:25.293Z,20.60
2019-02-19T08:14:25.298Z,18.10
2019-02-19T08:15:25.301Z,18.80
2019-02-19T08:16:25.303Z,20.20
2019-02-19T08:17:32.857Z,18.30
2019-02-19T08:18:25.368Z,17.50
2019-02-19T08:19:25.312Z,19.30
2019-02-19T08:20:25.325Z,18.10
2019-02-19T08:21:25.331Z,19.10
2019-02-19T08:22:25.340Z,18.10
2019-02-19T08:23:25.341Z,17.50
2019-02-19T08:24:25.341Z,15.90
2019-02-19T08:25:25.354Z,19.10
2019-02-19T08:26:25.351Z,16.30
2019-02-19T08:27:25.357Z,16.90
2019-02-19T08:28:25.363Z,16.90
2019-02-19T08:29:25.370Z,18.70
2019-02-19T08:30:25.376Z,17.10
2019-02-19T08:31:25.383Z,16.60
2019-02-19T08:32:25.389Z,17.90
2019-02-19T08:33:25.392Z,16.50
2019-02-19T08:34:25.395Z,17.50
2019-02-19T08:35:25.399Z,16.80
2019-02-19T08:36:25.408Z,16.70
2019-02-19T08:37:25.433Z,16.40
2019-02-19T08:38:25.415Z,15.90
2019-02-19T08:39:25.442Z,16.90
2019-02-19T08:40:25.432Z,16.20
2019-02-19T08:41:25.431Z,16.00
2019-02-19T08:42:25.437Z,16.60
2019-02-19T08:43:25.456Z,15.80
2019-02-19T08:44:25.477Z,16.30
2019-02-19T08:45:25.463Z,15.90
2019-02-19T08:46:25.473Z,16.00
2019-02-19T08:47:25.472Z,15.90
2019-02-19T08:48:25.479Z,15.30
2019-02-19T08:49:25.544Z,16.00
2019-02-19T08:50:25.486Z,16.00
2019-02-19T08:51:25.488Z,15.70
2019-02-19T08:52:25.495Z,14.50
2019-02-19T08:53:25.505Z,12.60
2019-02-19T08:54:25.508Z,14.90
2019-02-19T08:55:25.511Z,15.20
2019-02-19T08:56:25.518Z,14.10
2019-02-19T08:57:25.525Z,13.20
2019-02-19T08:58:25.531Z,13.80
2019-02-19T08:59:25.537Z,15.20
2019-02-19T09:00:25.545Z,14.70
2019-02-19T09:01:25.550Z,14.20
2019-02-19T09:02:25.556Z,15.10
2019-02-19T09:03:25.562Z,13.00
2019-02-19T09:04:25.563Z,11.70
2019-02-19T09:05:25.575Z,13.30
2019-02-19T09:06:27.475Z,12.70
2019-02-19T09:07:25.588Z,14.10
2019-02-19T09:08:25.592Z,14.00
2019-02-19T09:09:25.612Z,12.90
2019-02-19T09:10:25.611Z,14.00
2019-02-19T09:11:25.610Z,11.40
2019-02-19T09:12:25.633Z,13.00
2019-02-19T09:13:25.630Z,13.50
2019-02-19T09:14:25.636Z,14.60
2019-02-19T09:15:25.647Z,12.90
2019-02-19T09:16:25.662Z,13.90
2019-02-19T09:17:25.660Z,12.40
2019-02-19T09:18:25.665Z,14.30
2019-02-19T09:19:25.676Z,12.10
2019-02-19T09:20:25.681Z,13.10
2019-02-19T09:21:25.687Z,13.50
2019-02-19T09:22:25.708Z,13.30
2019-02-19T09:23:25.708Z,13.90
2019-02-19T09:24:25.710Z,12.70
2019-02-19T09:25:25.720Z,12.70
2019-02-19T09:26:25.726Z,12.70
2019-02-19T09:27:25.733Z,12.80
2019-02-19T09:28:25.742Z,12.00
2019-02-19T09:29:25.749Z,12.80
2019-02-19T09:30:25.758Z,11.90
2019-02-19T09:31:25.775Z,11.10
2019-02-19T09:32:25.783Z,12.80
2019-02-19T09:33:25.787Z,11.80
2019-02-19T09:34:25.794Z,13.20
2019-02-19T09:35:25.801Z,11.10
2019-02-19T09:36:25.809Z,13.20
2019-02-19T09:37:25.822Z,12.90
2019-02-19T09:38:25.834Z,13.20
2019-02-19T09:39:25.859Z,13.60
2019-02-19T09:40:25.847Z,13.70
2019-02-19T09:41:25.867Z,12.60
2019-02-19T09:42:25.869Z,13.70
2019-02-19T09:43:25.874Z,12.60
2019-02-19T09:44:25.884Z,12.10
2019-02-19T09:45:25.903Z,11.80
2019-02-19T09:46:25.913Z,12.10
2019-02-19T09:47:25.919Z,13.90
2019-02-19T09:48:25.918Z,13.80
2019-02-19T09:49:25.928Z,14.00
2019-02-19T09:50:25.935Z,13.60
2019-02-19T09:51:25.942Z,14.10
2019-02-19T09:52:25.954Z,13.90
2019-02-19T09:53:25.964Z,14.30
2019-02-19T09:54:25.977Z,12.20
2019-02-19T09:55:25.988Z,11.70
2019-02-19T09:56:25.993Z,12.90
2019-02-19T09:57:26.004Z,11.30
2019-02-19T09:58:26.012Z,12.00
2019-02-19T09:59:26.021Z,12.90
2019-02-19T10:00:26.031Z,12.30
2019-02-19T10:01:28.083Z,13.10
2019-02-19T10:02:26.048Z,13.60
2019-02-19T10:03:26.058Z,13.60
2019-02-19T10:04:26.071Z,13.10
2019-02-19T10:05:26.077Z,11.00
2019-02-19T10:06:26.087Z,11.00
2019-02-19T10:07:26.092Z,11.30
2019-02-19T10:08:26.103Z,10.30
2019-02-19T10:09:26.112Z,10.50
2019-02-19T10:10:26.125Z,10.00
2019-02-19T10:11:26.134Z,9.60
2019-02-19T10:12:26.140Z,10.90
2019-02-19T10:13:26.153Z,9.40
2019-02-19T10:14:26.163Z,10.80
2019-02-19T10:15:26.209Z,9.40
2019-02-19T10:16:26.179Z,9.10
2019-02-19T10:17:26.189Z,9.30
2019-02-19T10:18:26.202Z,10.50
2019-02-19T10:19:26.210Z,11.20
2019-02-19T10:20:26.221Z,10.40
2019-02-19T10:21:26.234Z,10.10
2019-02-19T10:22:26.238Z,10.70
2019-02-19T10:23:26.245Z,11.50
2019-02-19T10:24:26.254Z,10.40
2019-02-19T10:25:26.265Z,11.70
2019-02-19T10:26:26.283Z,11.70
2019-02-19T10:27:26.283Z,11.20
2019-02-19T10:28:26.292Z,10.70
2019-02-19T10:29:26.302Z,10.60
2019-02-19T10:30:26.316Z,8.80
2019-02-19T10:31:26.318Z,10.10
2019-02-19T10:32:26.378Z,10.30
2019-02-19T10:33:26.352Z,9.90
2019-02-19T10:34:26.350Z,9.80
2019-02-19T10:35:26.366Z,9.60
2019-02-19T10:36:26.369Z,8.80
2019-02-19T10:37:26.376Z,8.70
2019-02-19T10:38:26.389Z,9.40
2019-02-19T10:39:26.391Z,8.80
2019-02-19T10:40:26.402Z,8.00
2019-02-19T10:41:26.413Z,8.70
2019-02-19T10:42:26.421Z,8.50
2019-02-19T10:43:26.431Z,8.00
2019-02-19T10:44:26.442Z,8.00
2019-02-19T10:45:26.461Z,7.50
2019-02-19T10:46:26.477Z,7.70
2019-02-19T10:47:26.486Z,7.00
2019-02-19T10:48:26.492Z,6.80
2019-02-19T10:49:26.501Z,6.70
2019-02-19T10:50:26.524Z,6.10
2019-02-19T10:51:26.527Z,6.40
2019-02-19T10:52:26.540Z,6.90
2019-02-19T10:53:26.553Z,7.80
2019-02-19T10:54:26.566Z,6.70
2019-02-19T10:55:26.578Z,7.10
2019-02-19T10:56:26.597Z,7.50
2019-02-19T10:57:26.604Z,7.40
2019-02-19T10:58:26.617Z,6.40
2019-02-19T10:59:26.630Z,8.00
2019-02-19T11:00:26.636Z,7.20
2019-02-19T11:01:26.650Z,7.20
2019-02-19T11:02:26.664Z,5.70
2019-02-19T11:03:26.677Z,7.50
2019-02-19T11:04:26.683Z,7.50
2019-02-19T11:05:26.694Z,8.90
2019-02-19T11:06:26.706Z,7.80
2019-02-19T11:07:26.718Z,7.50
2019-02-19T11:08:26.725Z,8.20
2019-02-19T11:09:26.748Z,8.40
2019-02-19T11:10:26.741Z,8.40
2019-02-19T11:11:26.762Z,7.40
2019-02-19T11:12:26.763Z,7.80
2019-02-19T11:13:26.769Z,7.90
2019-02-19T11:14:26.774Z,8.50
2019-02-19T11:15:26.800Z,7.10
2019-02-19T11:16:26.789Z,7.70
2019-02-19T11:17:26.841Z,8.80
2019-02-19T11:18:28.769Z,8.50
2019-02-19T11:19:26.824Z,8.30
2019-02-19T11:20:26.830Z,8.30
2019-02-19T11:21:26.852Z,8.10
2019-02-19T11:22:26.849Z,7.10
2019-02-19T11:23:26.868Z,7.60
2019-02-19T11:24:26.877Z,7.80
2019-02-19T11:25:26.887Z,8.00
2019-02-19T11:26:26.887Z,7.90
2019-02-19T11:27:26.903Z,8.60
2019-02-19T11:28:26.900Z,8.40
2019-02-19T11:29:26.921Z,8.40
2019-02-19T11:30:26.929Z,8.40
2019-02-19T11:31:26.942Z,7.20
2019-02-19T11:32:26.954Z,7.50
2019-02-19T11:33:26.963Z,8.20
2019-02-19T11:34:26.970Z,8.20
2019-02-19T11:35:26.979Z,9.20
2019-02-19T11:36:26.990Z,7.90
2019-02-19T11:37:27.003Z,8.90
2019-02-19T11:38:27.008Z,7.70
2019-02-19T11:39:27.024Z,8.30
2019-02-19T11:40:27.031Z,8.60
2019-02-19T11:41:27.049Z,9.50
2019-02-19T11:42:27.050Z,8.70
2019-02-19T11:43:27.059Z,8.00
2019-02-19T11:44:27.086Z,7.50
2019-02-19T11:45:27.085Z,8.60
2019-02-19T11:46:27.108Z,8.00
2019-02-19T11:47:27.107Z,8.30
2019-02-19T11:48:27.117Z,8.70
2019-02-19T11:49:27.128Z,7.40
2019-02-19T11:50:27.136Z,7.50
2019-02-19T11:51:27.142Z,7.40
2019-02-19T11:52:27.158Z,8.40
2019-02-19T11:53:27.174Z,8.60
2019-02-19T11:54:27.181Z,9.00
2019-02-19T11:55:27.187Z,8.50
2019-02-19T11:56:27.200Z,7.60
2019-02-19T11:57:27.210Z,8.10
2019-02-19T11:58:27.223Z,7.80
2019-02-19T11:59:27.229Z,8.40
2019-02-19T12:00:27.236Z,7.90
2019-02-19T12:01:27.242Z,7.80
2019-02-19T12:02:32.727Z,7.00
2019-02-19T12:03:27.267Z,7.50
2019-02-19T12:04:27.277Z,7.20
2019-02-19T12:05:27.293Z,8.50
2019-02-19T12:06:27.290Z,6.50
2019-02-19T12:07:27.302Z,6.60
2019-02-19T12:08:27.309Z,7.30
2019-02-19T12:09:27.318Z,8.30
2019-02-19T12:10:27.329Z,7.80
2019-02-19T12:11:27.335Z,7.70
2019-02-19T12:12:27.345Z,6.80
2019-02-19T12:13:27.347Z,7.20
2019-02-19T12:14:27.365Z,7.30
2019-02-19T12:15:34.893Z,7.10
2019-02-19T12:16:27.376Z,6.50
2019-02-19T12:17:27.389Z,6.70
2019-02-19T12:18:27.399Z,7.40
2019-02-19T12:19:27.408Z,7.80
2019-02-19T12:20:27.417Z,7.00
2019-02-19T12:21:27.424Z,7.10
2019-02-19T12:22:27.437Z,7.10
2019-02-19T12:23:27.437Z,6.30
2019-02-19T12:24:27.447Z,7.50
2019-02-19T12:25:27.452Z,7.00
2019-02-19T12:26:27.465Z,6.80
2019-02-19T12:27:27.471Z,6.90
2019-02-19T12:28:27.484Z,7.40
2019-02-19T12:29:27.501Z,6.50
2019-02-19T12:30:27.508Z,6.60
2019-02-19T12:31:27.516Z,7.90
2019-02-19T12:32:27.526Z,7.50
2019-02-19T12:33:27.542Z,8.70
2019-02-19T12:34:27.545Z,8.60
2019-02-19T12:35:27.549Z,7.70
2019-02-19T12:36:27.564Z,7.90
2019-02-19T12:37:27.568Z,5.90
2019-02-19T12:38:27.570Z,5.70
2019-02-19T12:39:27.580Z,5.60
2019-02-19T12:40:27.593Z,7.60
2019-02-19T12:41:27.615Z,8.30
2019-02-19T12:42:27.606Z,8.30
2019-02-19T12:43:27.612Z,6.90
2019-02-19T12:44:27.625Z,7.70
2019-02-19T12:45:27.634Z,7.10
2019-02-19T12:46:27.635Z,7.70
2019-02-19T12:47:27.646Z,7.90
2019-02-19T12:48:27.656Z,7.50
2019-02-19T12:49:27.658Z,6.60
2019-02-19T12:50:27.665Z,8.10
2019-02-19T12:51:27.674Z,8.10
2019-02-19T12:52:27.687Z,8.30
2019-02-19T12:53:27.692Z,8.10
2019-02-19T12:54:27.707Z,6.80
2019-02-19T12:55:27.708Z,7.60
2019-02-19T12:56:27.714Z,8.40
2019-02-19T12:57:27.722Z,7.50
2019-02-19T12:58:27.729Z,7.30
2019-02-19T12:59:27.736Z,8.00
2019-02-19T13:00:27.748Z,7.80
2019-02-19T13:01:27.748Z,7.60
2019-02-19T13:02:27.758Z,7.50
2019-02-19T13:03:27.765Z,7.80